sensor_id;sensor_type;location;lat;lon;timestamp;temperature;humidity
16315;DHT22;8266;52.150;4.768;2023-02-04T00:01:32;10.90;99.90
16315;DHT22;8266;52.150;4.768;2023-02-04T00:04:01;10.90;99.90
16315;DHT22;8266;52.150;4.768;2023-02-04T00:06:28;10.80;99.90
16315;DHT22;8266;52.150;4.768;2023-02-04T00:08:54;10.80;99.90
16315;DHT22;8266;52.150;4.768;2023-02-04T00:11:21;10.80;99.90
16315;DHT22;8266;52.150;4.768;2023-02-04T00:13:48;10.80;99.90
16315;DHT22;8266;52.150;4.768;2023-02-04T00:16:15;10.80;99.90
16315;DHT22;8266;52.150;4.768;2023-02-04T00:18:42;10.80;99.90
16315;DHT22;8266;52.150;4.768;2023-02-04T00:21:11;10.70;99.90
16315;DHT22;8266;52.150;4.768;2023-02-04T00:23:38;10.70;99.90
16315;DHT22;8266;52.150;4.768;2023-02-04T00:26:05;10.70;99.90
16315;DHT22;8266;52.150;4.768;2023-02-04T00:28:33;10.60;99.90
16315;DHT22;8266;52.150;4.768;2023-02-04T00:31:00;10.60;99.90
16315;DHT22;8266;52.150;4.768;2023-02-04T00:33:27;10.60;99.90
16315;DHT22;8266;52.150;4.768;2023-02-04T00:35:54;10.50;99.90
16315;DHT22;8266;52.150;4.768;2023-02-04T00:38:23;10.40;99.90
16315;DHT22;8266;52.150;4.768;2023-02-04T00:40:50;10.40;99.90
16315;DHT22;8266;52.150;4.768;2023-02-04T00:43:17;10.30;99.90
16315;DHT22;8266;52.150;4.768;2023-02-04T00:45:45;10.30;99.90
16315;DHT22;8266;52.150;4.768;2023-02-04T00:48:12;10.20;99.90
16315;DHT22;8266;52.150;4.768;2023-02-04T00:50:39;10.20;99.90
16315;DHT22;8266;52.150;4.768;2023-02-04T00:53:06;10.20;99.90
16315;DHT22;8266;52.150;4.768;2023-02-04T00:55:35;10.10;99.90
16315;DHT22;8266;52.150;4.768;2023-02-04T00:58:02;10.10;99.90
16315;DHT22;8266;52.150;4.768;2023-02-04T01:00:29;10.10;99.90
16315;DHT22;8266;52.150;4.768;2023-02-04T01:02:56;10.10;99.90
16315;DHT22;8266;52.150;4.768;2023-02-04T01:05:23;10.10;99.90
16315;DHT22;8266;52.150;4.768;2023-02-04T01:07:50;10.10;99.90
16315;DHT22;8266;52.150;4.768;2023-02-04T01:10:17;10.10;99.90
16315;DHT22;8266;52.150;4.768;2023-02-04T01:12:45;10.00;99.90
16315;DHT22;8266;52.150;4.768;2023-02-04T01:15:12;10.00;99.90
16315;DHT22;8266;52.150;4.768;2023-02-04T01:17:39;10.00;99.90
16315;DHT22;8266;52.150;4.768;2023-02-04T01:20:08;9.90;99.90
16315;DHT22;8266;52.150;4.768;2023-02-04T01:22:35;10.00;99.90
16315;DHT22;8266;52.150;4.768;2023-02-04T01:25:02;9.90;99.90
16315;DHT22;8266;52.150;4.768;2023-02-04T01:27:29;9.90;99.90
16315;DHT22;8266;52.150;4.768;2023-02-04T01:29:58;9.90;99.90
16315;DHT22;8266;52.150;4.768;2023-02-04T01:32:24;9.90;99.90
16315;DHT22;8266;52.150;4.768;2023-02-04T01:34:52;9.80;99.90
16315;DHT22;8266;52.150;4.768;2023-02-04T01:37:18;9.80;99.90
16315;DHT22;8266;52.150;4.768;2023-02-04T01:39:45;9.80;99.90
16315;DHT22;8266;52.150;4.768;2023-02-04T01:42:12;9.80;99.90
16315;DHT22;8266;52.150;4.768;2023-02-04T01:44:40;9.70;99.90
16315;DHT22;8266;52.150;4.768;2023-02-04T01:47:08;9.70;99.90
16315;DHT22;8266;52.150;4.768;2023-02-04T01:49:35;9.60;99.90
16315;DHT22;8266;52.150;4.768;2023-02-04T01:52:03;9.60;99.90
16315;DHT22;8266;52.150;4.768;2023-02-04T01:54:30;9.50;99.90
16315;DHT22;8266;52.150;4.768;2023-02-04T01:56:58;9.50;99.90
16315;DHT22;8266;52.150;4.768;2023-02-04T01:59:26;9.50;99.90
16315;DHT22;8266;52.150;4.768;2023-02-04T02:01:53;9.40;99.90
16315;DHT22;8266;52.150;4.768;2023-02-04T02:04:28;9.40;99.90
16315;DHT22;8266;52.150;4.768;2023-02-04T02:06:57;9.40;99.90
16315;DHT22;8266;52.150;4.768;2023-02-04T02:09:25;9.30;99.90
16315;DHT22;8266;52.150;4.768;2023-02-04T02:11:52;9.30;99.90
16315;DHT22;8266;52.150;4.768;2023-02-04T02:14:19;9.30;99.90
16315;DHT22;8266;52.150;4.768;2023-02-04T02:16:47;9.30;99.90
16315;DHT22;8266;52.150;4.768;2023-02-04T02:19:18;9.40;99.90
16315;DHT22;8266;52.150;4.768;2023-02-04T02:21:52;9.40;99.90
16315;DHT22;8266;52.150;4.768;2023-02-04T02:24:27;9.40;99.90
16315;DHT22;8266;52.150;4.768;2023-02-04T02:26:56;9.50;99.90
16315;DHT22;8266;52.150;4.768;2023-02-04T02:29:24;9.50;99.90
16315;DHT22;8266;52.150;4.768;2023-02-04T02:31:52;9.60;99.90
16315;DHT22;8266;52.150;4.768;2023-02-04T02:34:21;9.60;99.90
16315;DHT22;8266;52.150;4.768;2023-02-04T02:36:49;9.60;99.90
16315;DHT22;8266;52.150;4.768;2023-02-04T02:39:16;9.70;99.90
16315;DHT22;8266;52.150;4.768;2023-02-04T02:41:45;9.70;99.90
16315;DHT22;8266;52.150;4.768;2023-02-04T02:44:13;9.70;99.90
16315;DHT22;8266;52.150;4.768;2023-02-04T02:46:40;9.80;99.90
16315;DHT22;8266;52.150;4.768;2023-02-04T02:49:12;9.80;99.90
16315;DHT22;8266;52.150;4.768;2023-02-04T02:51:40;9.90;99.90
16315;DHT22;8266;52.150;4.768;2023-02-04T02:54:15;9.90;99.90
16315;DHT22;8266;52.150;4.768;2023-02-04T02:56:46;9.90;99.90
16315;DHT22;8266;52.150;4.768;2023-02-04T02:59:14;9.90;99.90
16315;DHT22;8266;52.150;4.768;2023-02-04T03:01:41;10.00;99.90
16315;DHT22;8266;52.150;4.768;2023-02-04T03:04:10;10.00;99.90
16315;DHT22;8266;52.150;4.768;2023-02-04T03:06:37;10.00;99.90
16315;DHT22;8266;52.150;4.768;2023-02-04T03:09:04;10.00;99.90
16315;DHT22;8266;52.150;4.768;2023-02-04T03:11:31;10.00;99.90
16315;DHT22;8266;52.150;4.768;2023-02-04T03:14:00;10.00;99.90
16315;DHT22;8266;52.150;4.768;2023-02-04T03:16:27;10.00;99.90
16315;DHT22;8266;52.150;4.768;2023-02-04T03:18:57;10.10;99.90
16315;DHT22;8266;52.150;4.768;2023-02-04T03:21:25;10.00;99.90
16315;DHT22;8266;52.150;4.768;2023-02-04T03:23:52;10.00;99.90
16315;DHT22;8266;52.150;4.768;2023-02-04T03:26:21;10.00;99.90
16315;DHT22;8266;52.150;4.768;2023-02-04T03:28:48;10.10;99.90
16315;DHT22;8266;52.150;4.768;2023-02-04T03:31:17;10.10;99.90
16315;DHT22;8266;52.150;4.768;2023-02-04T03:33:43;10.10;99.90
16315;DHT22;8266;52.150;4.768;2023-02-04T03:36:10;10.10;99.90
16315;DHT22;8266;52.150;4.768;2023-02-04T03:38:37;10.10;99.90
16315;DHT22;8266;52.150;4.768;2023-02-04T03:41:04;10.10;99.90
16315;DHT22;8266;52.150;4.768;2023-02-04T03:43:32;10.10;99.90
16315;DHT22;8266;52.150;4.768;2023-02-04T03:45:58;10.10;99.90
16315;DHT22;8266;52.150;4.768;2023-02-04T03:48:27;10.10;99.90
16315;DHT22;8266;52.150;4.768;2023-02-04T03:50:54;10.10;99.90
16315;DHT22;8266;52.150;4.768;2023-02-04T03:53:21;10.10;99.90
16315;DHT22;8266;52.150;4.768;2023-02-04T03:55:49;10.10;99.90
16315;DHT22;8266;52.150;4.768;2023-02-04T03:58:16;10.10;99.90
16315;DHT22;8266;52.150;4.768;2023-02-04T04:00:43;10.10;99.90
16315;DHT22;8266;52.150;4.768;2023-02-04T04:03:10;10.10;99.90
16315;DHT22;8266;52.150;4.768;2023-02-04T04:05:38;10.10;99.90
16315;DHT22;8266;52.150;4.768;2023-02-04T04:08:05;10.10;99.90
16315;DHT22;8266;52.150;4.768;2023-02-04T04:10:32;10.10;99.90
16315;DHT22;8266;52.150;4.768;2023-02-04T04:12:59;10.10;99.90
16315;DHT22;8266;52.150;4.768;2023-02-04T04:15:26;10.10;99.90
16315;DHT22;8266;52.150;4.768;2023-02-04T04:17:53;10.00;99.90
16315;DHT22;8266;52.150;4.768;2023-02-04T04:20:20;10.00;99.90
16315;DHT22;8266;52.150;4.768;2023-02-04T04:22:51;10.10;99.90
16315;DHT22;8266;52.150;4.768;2023-02-04T04:25:18;10.10;99.90
16315;DHT22;8266;52.150;4.768;2023-02-04T04:27:45;10.10;99.90
16315;DHT22;8266;52.150;4.768;2023-02-04T04:30:12;10.00;99.90
16315;DHT22;8266;52.150;4.768;2023-02-04T04:32:39;10.00;99.90
16315;DHT22;8266;52.150;4.768;2023-02-04T04:35:07;10.00;99.90
16315;DHT22;8266;52.150;4.768;2023-02-04T04:37:34;10.00;99.90
16315;DHT22;8266;52.150;4.768;2023-02-04T04:40:02;10.00;99.90
16315;DHT22;8266;52.150;4.768;2023-02-04T04:42:29;10.00;99.90
16315;DHT22;8266;52.150;4.768;2023-02-04T04:44:56;10.00;99.90
16315;DHT22;8266;52.150;4.768;2023-02-04T04:47:23;9.90;99.90
16315;DHT22;8266;52.150;4.768;2023-02-04T04:49:50;9.90;99.90
16315;DHT22;8266;52.150;4.768;2023-02-04T04:52:17;9.90;99.90
16315;DHT22;8266;52.150;4.768;2023-02-04T04:54:44;9.90;99.90
16315;DHT22;8266;52.150;4.768;2023-02-04T04:57:12;9.90;99.90
16315;DHT22;8266;52.150;4.768;2023-02-04T04:59:39;10.00;99.90
16315;DHT22;8266;52.150;4.768;2023-02-04T05:02:06;10.00;99.90
16315;DHT22;8266;52.150;4.768;2023-02-04T05:04:33;10.00;99.90
16315;DHT22;8266;52.150;4.768;2023-02-04T05:07:00;10.00;99.90
16315;DHT22;8266;52.150;4.768;2023-02-04T05:09:27;10.00;99.90
16315;DHT22;8266;52.150;4.768;2023-02-04T05:11:55;10.00;99.90
16315;DHT22;8266;52.150;4.768;2023-02-04T05:14:23;10.00;99.90
16315;DHT22;8266;52.150;4.768;2023-02-04T05:16:50;10.00;99.90
16315;DHT22;8266;52.150;4.768;2023-02-04T05:19:17;10.00;99.90
16315;DHT22;8266;52.150;4.768;2023-02-04T05:21:44;10.00;99.90
16315;DHT22;8266;52.150;4.768;2023-02-04T05:24:11;10.10;99.90
16315;DHT22;8266;52.150;4.768;2023-02-04T05:26:38;10.00;99.90
16315;DHT22;8266;52.150;4.768;2023-02-04T05:29:05;10.10;99.90
16315;DHT22;8266;52.150;4.768;2023-02-04T05:31:34;10.10;99.90
16315;DHT22;8266;52.150;4.768;2023-02-04T05:34:01;10.10;99.90
16315;DHT22;8266;52.150;4.768;2023-02-04T05:36:27;10.10;99.90
16315;DHT22;8266;52.150;4.768;2023-02-04T05:38:55;10.10;99.90
16315;DHT22;8266;52.150;4.768;2023-02-04T05:41:22;10.20;99.90
16315;DHT22;8266;52.150;4.768;2023-02-04T05:43:48;10.20;99.90
16315;DHT22;8266;52.150;4.768;2023-02-04T05:46:16;10.20;99.90
16315;DHT22;8266;52.150;4.768;2023-02-04T05:48:44;10.20;99.90
16315;DHT22;8266;52.150;4.768;2023-02-04T05:51:11;10.20;99.90
16315;DHT22;8266;52.150;4.768;2023-02-04T05:53:38;10.20;99.90
16315;DHT22;8266;52.150;4.768;2023-02-04T05:56:05;10.30;99.90
16315;DHT22;8266;52.150;4.768;2023-02-04T05:58:32;10.30;99.90
16315;DHT22;8266;52.150;4.768;2023-02-04T06:00:59;10.30;99.90
16315;DHT22;8266;52.150;4.768;2023-02-04T06:03:27;10.30;99.90
16315;DHT22;8266;52.150;4.768;2023-02-04T06:05:56;10.30;99.90
16315;DHT22;8266;52.150;4.768;2023-02-04T06:08:23;10.30;99.90
16315;DHT22;8266;52.150;4.768;2023-02-04T06:10:50;10.30;99.90
16315;DHT22;8266;52.150;4.768;2023-02-04T06:13:17;10.30;99.90
16315;DHT22;8266;52.150;4.768;2023-02-04T06:15:44;10.30;99.90
16315;DHT22;8266;52.150;4.768;2023-02-04T06:18:11;10.30;99.90
16315;DHT22;8266;52.150;4.768;2023-02-04T06:20:38;10.30;99.90
16315;DHT22;8266;52.150;4.768;2023-02-04T06:23:07;10.30;99.90
16315;DHT22;8266;52.150;4.768;2023-02-04T06:25:33;10.30;99.90
16315;DHT22;8266;52.150;4.768;2023-02-04T06:28:01;10.30;99.90
16315;DHT22;8266;52.150;4.768;2023-02-04T06:30:28;10.30;99.90
16315;DHT22;8266;52.150;4.768;2023-02-04T06:32:54;10.40;99.90
16315;DHT22;8266;52.150;4.768;2023-02-04T06:35:22;10.40;99.90
16315;DHT22;8266;52.150;4.768;2023-02-04T06:37:48;10.40;99.90
16315;DHT22;8266;52.150;4.768;2023-02-04T06:40:17;10.40;99.90
16315;DHT22;8266;52.150;4.768;2023-02-04T06:42:44;10.40;99.90
16315;DHT22;8266;52.150;4.768;2023-02-04T06:45:11;10.40;99.90
16315;DHT22;8266;52.150;4.768;2023-02-04T06:47:38;10.40;99.90
16315;DHT22;8266;52.150;4.768;2023-02-04T06:50:05;10.40;99.90
16315;DHT22;8266;52.150;4.768;2023-02-04T06:52:33;10.40;99.90
16315;DHT22;8266;52.150;4.768;2023-02-04T06:54:59;10.40;99.90
16315;DHT22;8266;52.150;4.768;2023-02-04T06:57:28;10.40;99.90
16315;DHT22;8266;52.150;4.768;2023-02-04T06:59:55;10.40;99.90
16315;DHT22;8266;52.150;4.768;2023-02-04T07:02:22;10.40;99.90
16315;DHT22;8266;52.150;4.768;2023-02-04T07:04:49;10.40;99.90
16315;DHT22;8266;52.150;4.768;2023-02-04T07:07:16;10.40;99.90
16315;DHT22;8266;52.150;4.768;2023-02-04T07:09:43;10.40;99.90
16315;DHT22;8266;52.150;4.768;2023-02-04T07:12:09;10.40;99.90
16315;DHT22;8266;52.150;4.768;2023-02-04T07:14:38;10.40;99.90
16315;DHT22;8266;52.150;4.768;2023-02-04T07:17:05;10.40;99.90
16315;DHT22;8266;52.150;4.768;2023-02-04T07:19:32;10.40;99.90
16315;DHT22;8266;52.150;4.768;2023-02-04T07:22:01;10.40;99.90
16315;DHT22;8266;52.150;4.768;2023-02-04T07:24:28;10.40;99.90
16315;DHT22;8266;52.150;4.768;2023-02-04T07:26:55;10.40;99.90
16315;DHT22;8266;52.150;4.768;2023-02-04T07:29:22;10.40;99.90
16315;DHT22;8266;52.150;4.768;2023-02-04T07:31:50;10.40;99.90
16315;DHT22;8266;52.150;4.768;2023-02-04T07:34:17;10.40;99.90
16315;DHT22;8266;52.150;4.768;2023-02-04T07:36:44;10.40;99.90
16315;DHT22;8266;52.150;4.768;2023-02-04T07:39:11;10.40;99.90
16315;DHT22;8266;52.150;4.768;2023-02-04T07:41:38;10.50;99.90
16315;DHT22;8266;52.150;4.768;2023-02-04T07:44:05;10.50;99.90
16315;DHT22;8266;52.150;4.768;2023-02-04T07:46:32;10.50;99.90
16315;DHT22;8266;52.150;4.768;2023-02-04T07:49:01;10.50;99.90
16315;DHT22;8266;52.150;4.768;2023-02-04T07:51:28;10.50;99.90
16315;DHT22;8266;52.150;4.768;2023-02-04T07:53:55;10.50;99.90
16315;DHT22;8266;52.150;4.768;2023-02-04T07:56:22;10.50;99.90
16315;DHT22;8266;52.150;4.768;2023-02-04T07:58:49;10.50;99.90
16315;DHT22;8266;52.150;4.768;2023-02-04T08:01:16;10.60;99.90
16315;DHT22;8266;52.150;4.768;2023-02-04T08:03:43;10.60;99.90
16315;DHT22;8266;52.150;4.768;2023-02-04T08:06:12;10.60;99.90
16315;DHT22;8266;52.150;4.768;2023-02-04T08:08:38;10.60;99.90
16315;DHT22;8266;52.150;4.768;2023-02-04T08:11:05;10.60;99.90
16315;DHT22;8266;52.150;4.768;2023-02-04T08:13:32;10.70;99.90
16315;DHT22;8266;52.150;4.768;2023-02-04T08:15:59;10.70;99.90
16315;DHT22;8266;52.150;4.768;2023-02-04T08:18:26;10.70;99.90
16315;DHT22;8266;52.150;4.768;2023-02-04T08:20:53;10.70;99.90
16315;DHT22;8266;52.150;4.768;2023-02-04T08:23:22;10.80;99.90
16315;DHT22;8266;52.150;4.768;2023-02-04T08:25:49;10.80;99.90
16315;DHT22;8266;52.150;4.768;2023-02-04T08:28:16;10.80;99.90
16315;DHT22;8266;52.150;4.768;2023-02-04T08:30:43;10.80;99.90
16315;DHT22;8266;52.150;4.768;2023-02-04T08:33:10;10.90;99.90
16315;DHT22;8266;52.150;4.768;2023-02-04T08:35:37;10.90;99.90
16315;DHT22;8266;52.150;4.768;2023-02-04T08:38:04;11.00;99.90
16315;DHT22;8266;52.150;4.768;2023-02-04T08:40:32;11.00;99.90
16315;DHT22;8266;52.150;4.768;2023-02-04T08:42:59;11.10;99.90
16315;DHT22;8266;52.150;4.768;2023-02-04T08:45:27;11.10;99.90
16315;DHT22;8266;52.150;4.768;2023-02-04T08:47:54;11.10;99.90
16315;DHT22;8266;52.150;4.768;2023-02-04T08:50:21;11.20;99.90
16315;DHT22;8266;52.150;4.768;2023-02-04T08:52:48;11.20;99.90
16315;DHT22;8266;52.150;4.768;2023-02-04T08:55:15;11.20;99.90
16315;DHT22;8266;52.150;4.768;2023-02-04T08:57:43;11.20;99.90
16315;DHT22;8266;52.150;4.768;2023-02-04T09:00:11;11.30;99.90
16315;DHT22;8266;52.150;4.768;2023-02-04T09:02:38;11.30;99.90
16315;DHT22;8266;52.150;4.768;2023-02-04T09:05:06;11.30;99.90
16315;DHT22;8266;52.150;4.768;2023-02-04T09:07:33;11.30;99.90
16315;DHT22;8266;52.150;4.768;2023-02-04T09:10:00;11.40;99.90
16315;DHT22;8266;52.150;4.768;2023-02-04T09:12:27;11.40;99.90
16315;DHT22;8266;52.150;4.768;2023-02-04T09:14:55;11.40;99.90
16315;DHT22;8266;52.150;4.768;2023-02-04T09:17:22;11.50;99.90
16315;DHT22;8266;52.150;4.768;2023-02-04T09:19:49;11.50;99.90
16315;DHT22;8266;52.150;4.768;2023-02-04T09:22:16;11.60;99.90
16315;DHT22;8266;52.150;4.768;2023-02-04T09:24:43;11.60;99.90
16315;DHT22;8266;52.150;4.768;2023-02-04T09:27:10;11.70;99.90
16315;DHT22;8266;52.150;4.768;2023-02-04T09:29:37;11.80;99.90
16315;DHT22;8266;52.150;4.768;2023-02-04T09:32:05;11.80;99.90
16315;DHT22;8266;52.150;4.768;2023-02-04T09:34:32;11.80;99.90
16315;DHT22;8266;52.150;4.768;2023-02-04T09:36:59;11.90;99.90
16315;DHT22;8266;52.150;4.768;2023-02-04T09:39:27;11.90;99.90
16315;DHT22;8266;52.150;4.768;2023-02-04T09:41:54;11.90;99.90
16315;DHT22;8266;52.150;4.768;2023-02-04T09:44:24;11.90;99.90
16315;DHT22;8266;52.150;4.768;2023-02-04T09:46:55;12.00;99.90
16315;DHT22;8266;52.150;4.768;2023-02-04T09:49:24;12.00;99.90
16315;DHT22;8266;52.150;4.768;2023-02-04T09:51:52;12.00;99.90
16315;DHT22;8266;52.150;4.768;2023-02-04T09:54:21;12.00;99.90
16315;DHT22;8266;52.150;4.768;2023-02-04T09:56:48;12.00;99.90
16315;DHT22;8266;52.150;4.768;2023-02-04T09:59:18;12.00;99.90
16315;DHT22;8266;52.150;4.768;2023-02-04T10:01:46;12.00;99.90
16315;DHT22;8266;52.150;4.768;2023-02-04T10:04:14;12.00;99.90
16315;DHT22;8266;52.150;4.768;2023-02-04T10:06:43;12.00;99.90
16315;DHT22;8266;52.150;4.768;2023-02-04T10:09:10;12.00;99.90
16315;DHT22;8266;52.150;4.768;2023-02-04T10:11:39;12.00;99.90
16315;DHT22;8266;52.150;4.768;2023-02-04T10:14:12;12.00;99.90
16315;DHT22;8266;52.150;4.768;2023-02-04T10:16:40;12.00;99.90
16315;DHT22;8266;52.150;4.768;2023-02-04T10:19:12;12.10;99.90
16315;DHT22;8266;52.150;4.768;2023-02-04T10:21:40;12.10;99.90
16315;DHT22;8266;52.150;4.768;2023-02-04T10:24:14;12.20;99.90
16315;DHT22;8266;52.150;4.768;2023-02-04T10:26:41;12.20;99.90
16315;DHT22;8266;52.150;4.768;2023-02-04T10:29:13;12.20;99.90
16315;DHT22;8266;52.150;4.768;2023-02-04T10:31:42;12.30;99.90
16315;DHT22;8266;52.150;4.768;2023-02-04T10:34:13;12.30;99.90
16315;DHT22;8266;52.150;4.768;2023-02-04T10:36:42;12.30;99.90
16315;DHT22;8266;52.150;4.768;2023-02-04T10:39:15;12.30;99.90
16315;DHT22;8266;52.150;4.768;2023-02-04T10:41:47;12.40;99.90
16315;DHT22;8266;52.150;4.768;2023-02-04T10:44:17;12.40;99.90
16315;DHT22;8266;52.150;4.768;2023-02-04T10:46:44;12.50;99.90
16315;DHT22;8266;52.150;4.768;2023-02-04T10:49:18;12.50;99.90
16315;DHT22;8266;52.150;4.768;2023-02-04T10:51:45;12.60;99.90
16315;DHT22;8266;52.150;4.768;2023-02-04T10:54:15;12.60;99.90
16315;DHT22;8266;52.150;4.768;2023-02-04T10:57:06;12.60;99.90
16315;DHT22;8266;52.150;4.768;2023-02-04T10:59:35;12.60;99.90
16315;DHT22;8266;52.150;4.768;2023-02-04T11:02:30;12.60;99.90
16315;DHT22;8266;52.150;4.768;2023-02-04T11:04:59;12.70;99.90
16315;DHT22;8266;52.150;4.768;2023-02-04T11:07:26;12.70;99.90
16315;DHT22;8266;52.150;4.768;2023-02-04T11:09:56;12.80;99.90
16315;DHT22;8266;52.150;4.768;2023-02-04T11:12:36;12.90;99.90
16315;DHT22;8266;52.150;4.768;2023-02-04T11:15:04;13.00;99.90
16315;DHT22;8266;52.150;4.768;2023-02-04T11:17:33;13.20;99.90
16315;DHT22;8266;52.150;4.768;2023-02-04T11:20:13;13.30;99.90
16315;DHT22;8266;52.150;4.768;2023-02-04T11:22:42;13.40;99.90
16315;DHT22;8266;52.150;4.768;2023-02-04T11:25:33;13.50;99.90
16315;DHT22;8266;52.150;4.768;2023-02-04T11:28:12;13.60;99.90
16315;DHT22;8266;52.150;4.768;2023-02-04T11:30:39;13.70;99.90
16315;DHT22;8266;52.150;4.768;2023-02-04T11:33:21;13.80;99.90
16315;DHT22;8266;52.150;4.768;2023-02-04T11:36:00;13.90;99.90
16315;DHT22;8266;52.150;4.768;2023-02-04T11:38:30;14.00;99.90
16315;DHT22;8266;52.150;4.768;2023-02-04T11:40:59;14.00;99.90
16315;DHT22;8266;52.150;4.768;2023-02-04T11:43:26;14.10;99.90
16315;DHT22;8266;52.150;4.768;2023-02-04T11:46:03;14.10;99.90
16315;DHT22;8266;52.150;4.768;2023-02-04T11:48:31;14.20;99.90
16315;DHT22;8266;52.150;4.768;2023-02-04T11:51:00;14.30;99.90
16315;DHT22;8266;52.150;4.768;2023-02-04T11:53:29;14.30;99.90
16315;DHT22;8266;52.150;4.768;2023-02-04T11:55:56;14.40;99.90
16315;DHT22;8266;52.150;4.768;2023-02-04T11:58:28;14.50;99.90
16315;DHT22;8266;52.150;4.768;2023-02-04T12:00:55;14.50;99.90
16315;DHT22;8266;52.150;4.768;2023-02-04T12:03:25;14.60;99.90
16315;DHT22;8266;52.150;4.768;2023-02-04T12:05:54;14.60;99.90
16315;DHT22;8266;52.150;4.768;2023-02-04T12:08:29;14.60;99.90
16315;DHT22;8266;52.150;4.768;2023-02-04T12:11:09;14.70;99.90
16315;DHT22;8266;52.150;4.768;2023-02-04T12:13:47;14.70;99.90
16315;DHT22;8266;52.150;4.768;2023-02-04T12:16:15;14.70;99.90
16315;DHT22;8266;52.150;4.768;2023-02-04T12:18:42;14.70;99.90
16315;DHT22;8266;52.150;4.768;2023-02-04T12:21:09;14.80;99.90
16315;DHT22;8266;52.150;4.768;2023-02-04T12:23:36;14.80;99.90
16315;DHT22;8266;52.150;4.768;2023-02-04T12:26:03;14.80;99.90
16315;DHT22;8266;52.150;4.768;2023-02-04T12:28:30;14.80;99.90
16315;DHT22;8266;52.150;4.768;2023-02-04T12:30:58;14.70;99.90
16315;DHT22;8266;52.150;4.768;2023-02-04T12:33:25;14.70;99.90
16315;DHT22;8266;52.150;4.768;2023-02-04T12:35:53;14.70;99.90
16315;DHT22;8266;52.150;4.768;2023-02-04T12:38:20;14.60;99.90
16315;DHT22;8266;52.150;4.768;2023-02-04T12:40:47;14.60;99.90
16315;DHT22;8266;52.150;4.768;2023-02-04T12:43:14;14.60;99.90
16315;DHT22;8266;52.150;4.768;2023-02-04T12:45:41;14.60;99.90
16315;DHT22;8266;52.150;4.768;2023-02-04T12:48:12;14.50;99.90
16315;DHT22;8266;52.150;4.768;2023-02-04T12:50:39;14.50;99.90
16315;DHT22;8266;52.150;4.768;2023-02-04T12:53:06;14.60;99.90
16315;DHT22;8266;52.150;4.768;2023-02-04T12:55:33;14.60;99.90
16315;DHT22;8266;52.150;4.768;2023-02-04T12:58:00;14.60;99.90
16315;DHT22;8266;52.150;4.768;2023-02-04T13:00:28;14.60;99.90
16315;DHT22;8266;52.150;4.768;2023-02-04T13:02:55;14.60;99.90
16315;DHT22;8266;52.150;4.768;2023-02-04T13:05:25;14.60;99.90
16315;DHT22;8266;52.150;4.768;2023-02-04T13:07:52;14.60;99.90
16315;DHT22;8266;52.150;4.768;2023-02-04T13:10:20;14.70;99.90
16315;DHT22;8266;52.150;4.768;2023-02-04T13:12:48;14.70;99.90
16315;DHT22;8266;52.150;4.768;2023-02-04T13:15:16;14.70;99.90
16315;DHT22;8266;52.150;4.768;2023-02-04T13:17:43;14.70;99.90
16315;DHT22;8266;52.150;4.768;2023-02-04T13:20:11;14.70;99.90
16315;DHT22;8266;52.150;4.768;2023-02-04T13:22:40;14.60;99.90
16315;DHT22;8266;52.150;4.768;2023-02-04T13:25:07;14.70;99.90
16315;DHT22;8266;52.150;4.768;2023-02-04T13:27:36;14.70;99.90
16315;DHT22;8266;52.150;4.768;2023-02-04T13:30:03;14.70;99.90
16315;DHT22;8266;52.150;4.768;2023-02-04T13:32:30;14.70;99.90
16315;DHT22;8266;52.150;4.768;2023-02-04T13:34:57;14.70;99.90
16315;DHT22;8266;52.150;4.768;2023-02-04T13:37:24;14.80;99.90
16315;DHT22;8266;52.150;4.768;2023-02-04T13:39:53;14.80;99.90
16315;DHT22;8266;52.150;4.768;2023-02-04T13:42:20;14.80;99.90
16315;DHT22;8266;52.150;4.768;2023-02-04T13:44:47;14.90;99.90
16315;DHT22;8266;52.150;4.768;2023-02-04T13:47:14;14.90;99.90
16315;DHT22;8266;52.150;4.768;2023-02-04T13:49:41;14.90;99.90
16315;DHT22;8266;52.150;4.768;2023-02-04T13:52:08;14.90;99.90
16315;DHT22;8266;52.150;4.768;2023-02-04T13:54:35;14.90;99.90
16315;DHT22;8266;52.150;4.768;2023-02-04T13:57:03;14.90;99.90
16315;DHT22;8266;52.150;4.768;2023-02-04T13:59:30;14.80;99.90
16315;DHT22;8266;52.150;4.768;2023-02-04T14:01:58;14.80;99.90
16315;DHT22;8266;52.150;4.768;2023-02-04T14:04:25;14.70;99.90
16315;DHT22;8266;52.150;4.768;2023-02-04T14:06:52;14.70;99.90
16315;DHT22;8266;52.150;4.768;2023-02-04T14:09:20;14.70;99.90
16315;DHT22;8266;52.150;4.768;2023-02-04T14:11:47;14.60;99.90
16315;DHT22;8266;52.150;4.768;2023-02-04T14:14:15;14.60;99.90
16315;DHT22;8266;52.150;4.768;2023-02-04T14:16:42;14.50;99.90
16315;DHT22;8266;52.150;4.768;2023-02-04T14:19:09;14.50;99.90
16315;DHT22;8266;52.150;4.768;2023-02-04T14:21:37;14.50;99.90
16315;DHT22;8266;52.150;4.768;2023-02-04T14:24:04;14.40;99.90
16315;DHT22;8266;52.150;4.768;2023-02-04T14:26:31;14.40;99.90
16315;DHT22;8266;52.150;4.768;2023-02-04T14:28:58;14.40;99.90
16315;DHT22;8266;52.150;4.768;2023-02-04T14:31:26;14.30;99.90
16315;DHT22;8266;52.150;4.768;2023-02-04T14:33:53;14.30;99.90
16315;DHT22;8266;52.150;4.768;2023-02-04T14:36:20;14.30;99.90
16315;DHT22;8266;52.150;4.768;2023-02-04T14:38:48;14.30;99.90
16315;DHT22;8266;52.150;4.768;2023-02-04T14:41:15;14.30;99.90
16315;DHT22;8266;52.150;4.768;2023-02-04T14:43:44;14.30;99.90
16315;DHT22;8266;52.150;4.768;2023-02-04T14:46:11;14.20;99.90
16315;DHT22;8266;52.150;4.768;2023-02-04T14:48:39;14.20;99.90
16315;DHT22;8266;52.150;4.768;2023-02-04T14:51:06;14.20;99.90
16315;DHT22;8266;52.150;4.768;2023-02-04T14:53:33;14.20;99.90
16315;DHT22;8266;52.150;4.768;2023-02-04T14:56:00;14.20;99.90
16315;DHT22;8266;52.150;4.768;2023-02-04T14:58:28;14.20;99.90
16315;DHT22;8266;52.150;4.768;2023-02-04T15:00:54;14.10;99.90
16315;DHT22;8266;52.150;4.768;2023-02-04T15:03:22;14.10;99.90
16315;DHT22;8266;52.150;4.768;2023-02-04T15:05:50;14.10;99.90
16315;DHT22;8266;52.150;4.768;2023-02-04T15:08:17;14.10;99.90
16315;DHT22;8266;52.150;4.768;2023-02-04T15:10:44;14.10;99.90
16315;DHT22;8266;52.150;4.768;2023-02-04T15:13:11;14.10;99.90
16315;DHT22;8266;52.150;4.768;2023-02-04T15:15:38;14.10;99.90
16315;DHT22;8266;52.150;4.768;2023-02-04T15:18:05;14.10;99.90
16315;DHT22;8266;52.150;4.768;2023-02-04T15:20:32;14.00;99.90
16315;DHT22;8266;52.150;4.768;2023-02-04T15:23:01;14.00;99.90
16315;DHT22;8266;52.150;4.768;2023-02-04T15:25:28;14.00;99.90
16315;DHT22;8266;52.150;4.768;2023-02-04T15:27:55;14.00;99.90
16315;DHT22;8266;52.150;4.768;2023-02-04T15:30:22;14.00;99.90
16315;DHT22;8266;52.150;4.768;2023-02-04T15:32:48;14.00;99.90
16315;DHT22;8266;52.150;4.768;2023-02-04T15:35:15;13.90;99.90
16315;DHT22;8266;52.150;4.768;2023-02-04T15:37:42;13.90;99.90
16315;DHT22;8266;52.150;4.768;2023-02-04T15:40:11;13.80;99.90
16315;DHT22;8266;52.150;4.768;2023-02-04T15:42:38;13.70;99.90
16315;DHT22;8266;52.150;4.768;2023-02-04T15:45:06;13.80;99.90
16315;DHT22;8266;52.150;4.768;2023-02-04T15:47:33;13.70;99.90
16315;DHT22;8266;52.150;4.768;2023-02-04T15:50:00;13.70;99.90
16315;DHT22;8266;52.150;4.768;2023-02-04T15:52:28;13.60;99.90